Arizona City, Arizona
Current Conditions -  °F | °C
As of 5:35 PM on Wednesday 22 Oct 2014 (Local Time) from KCGZ Reporting Station
Clear Clear  
Wind Chill: 30°   Ceiling: Unl
Heat Index: 30°   Visibility: 10mi
Dew Point:   Wind: 0mph
Humidity: 27%   Direction: NA
Pressure: 29.93"   Gusts: NA
Location:  32.75°N, 111.67°W
Report Text: KCGZ 230035Z AUTO 00000KT 10SM CLR 30/09 A2993 RMK AO1
Loading
Personal Weather Stations






























Interactive Weather Map
Tropical Storm Tracking
New forecast layout! Learn more

10-Day Weather Forecast

Advertisements
Track Severe Weather on mobile